createdAt,value
2022-10-31T00:00:23.622Z,64.26
2022-10-31T00:01:26.198Z,64.30
2022-10-31T00:02:27.760Z,64.36
2022-10-31T00:03:29.328Z,64.17
2022-10-31T00:04:30.758Z,64.27
2022-10-31T00:05:32.258Z,64.09
2022-10-31T00:06:33.818Z,64.21
2022-10-31T00:07:35.299Z,64.15
2022-10-31T00:08:36.900Z,64.16
2022-10-31T00:09:38.349Z,63.99
2022-10-31T00:10:40.127Z,64.03
2022-10-31T00:11:41.647Z,64.15
2022-10-31T00:12:43.140Z,64.14
2022-10-31T00:13:44.575Z,64.25
2022-10-31T00:14:46.042Z,64.21
2022-10-31T00:15:47.478Z,64.48
2022-10-31T00:16:48.938Z,64.42
2022-10-31T00:17:50.500Z,64.43
2022-10-31T00:18:52.337Z,64.41
2022-10-31T00:19:53.759Z,64.58
2022-10-31T00:21:01.591Z,64.41
2022-10-31T00:22:03.167Z,64.35
2022-10-31T00:23:04.841Z,64.33
2022-10-31T00:24:06.494Z,64.51
2022-10-31T00:25:08.169Z,64.34
2022-10-31T00:26:09.635Z,64.62
2022-10-31T00:27:11.178Z,64.49
2022-10-31T00:28:13.244Z,64.35
2022-10-31T00:29:14.798Z,64.55
2022-10-31T00:30:16.518Z,64.38
2022-10-31T00:31:18.123Z,64.53
2022-10-31T00:32:19.600Z,64.46
2022-10-31T00:33:21.073Z,64.44
2022-10-31T00:34:23.046Z,64.47
2022-10-31T00:35:24.498Z,64.65
2022-10-31T00:36:25.966Z,64.44
2022-10-31T00:37:27.868Z,64.49
2022-10-31T00:38:29.314Z,64.73
2022-10-31T00:39:30.830Z,64.50
2022-10-31T00:40:32.417Z,64.56
2022-10-31T00:41:33.906Z,64.49
2022-10-31T00:42:35.426Z,64.57
2022-10-31T00:43:36.891Z,64.59
2022-10-31T00:44:38.377Z,64.60
2022-10-31T00:45:39.832Z,64.71
2022-10-31T00:46:41.512Z,64.68
2022-10-31T00:47:42.952Z,64.77
2022-10-31T00:48:44.396Z,64.64
2022-10-31T00:49:45.956Z,64.74
2022-10-31T00:50:47.495Z,64.63
2022-10-31T00:51:49.088Z,64.62
2022-10-31T00:52:50.670Z,64.75
2022-10-31T00:53:52.124Z,64.65
2022-10-31T00:54:53.755Z,64.91
2022-10-31T00:55:55.455Z,64.86
2022-10-31T00:56:58.169Z,64.91
2022-10-31T00:58:00.313Z,64.96
2022-10-31T00:59:02.153Z,64.77
2022-10-31T01:00:03.969Z,64.96
2022-10-31T01:01:05.530Z,64.83
2022-10-31T01:02:07.316Z,64.76
2022-10-31T01:03:08.912Z,64.77
2022-10-31T01:04:13.596Z,64.80
2022-10-31T01:05:15.080Z,64.74
2022-10-31T01:06:17.088Z,64.91
2022-10-31T01:07:18.537Z,64.73
2022-10-31T01:08:20.015Z,64.87
2022-10-31T01:09:22.518Z,64.83
2022-10-31T01:10:24.024Z,64.77
2022-10-31T01:11:26.943Z,64.88
2022-10-31T01:12:28.419Z,64.82
2022-10-31T01:13:29.992Z,64.74
2022-10-31T01:14:31.454Z,64.84
2022-10-31T01:15:33.002Z,64.82
2022-10-31T01:16:34.468Z,64.99
2022-10-31T01:17:35.953Z,65.03
2022-10-31T01:18:37.823Z,64.91
2022-10-31T01:19:39.316Z,65.10
2022-10-31T01:20:40.885Z,65.00
2022-10-31T01:21:42.368Z,64.87
2022-10-31T01:22:43.845Z,64.97
2022-10-31T01:23:45.348Z,65.05
2022-10-31T01:24:48.353Z,64.86
2022-10-31T01:25:49.827Z,65.02
2022-10-31T01:26:51.350Z,64.83
2022-10-31T01:27:52.876Z,64.85
2022-10-31T01:29:00.998Z,64.99
2022-10-31T01:30:03.566Z,65.02
2022-10-31T01:31:06.290Z,64.88
2022-10-31T01:32:09.297Z,65.02
2022-10-31T01:33:10.778Z,65.06
2022-10-31T01:34:16.269Z,65.13
2022-10-31T01:35:17.724Z,65.14
2022-10-31T01:36:23.718Z,65.07
2022-10-31T01:37:27.940Z,64.98
2022-10-31T01:38:29.401Z,65.03
2022-10-31T01:39:30.856Z,65.09
2022-10-31T01:40:32.296Z,65.03
2022-10-31T01:41:34.771Z,64.88
2022-10-31T01:42:38.002Z,64.78
2022-10-31T01:43:46.351Z,64.66
2022-10-31T01:44:49.531Z,64.84
2022-10-31T01:45:52.560Z,64.72
2022-10-31T01:47:00.509Z,64.79
2022-10-31T01:48:02.115Z,64.77
2022-10-31T01:49:10.113Z,64.87
2022-10-31T01:50:13.551Z,64.95
2022-10-31T01:51:15.073Z,65.14
2022-10-31T01:52:21.365Z,65.05
2022-10-31T01:53:25.993Z,65.14
2022-10-31T01:54:31.461Z,65.04
2022-10-31T01:55:36.429Z,64.89
2022-10-31T01:56:38.996Z,64.83
2022-10-31T01:57:41.417Z,64.85
2022-10-31T01:58:44.104Z,64.81
2022-10-31T01:59:47.588Z,64.88
2022-10-31T02:00:50.037Z,65.17
2022-10-31T02:01:51.881Z,65.24
2022-10-31T02:02:53.731Z,65.15
2022-10-31T02:03:55.233Z,65.24
2022-10-31T02:04:57.293Z,65.20
2022-10-31T02:05:58.779Z,65.49
2022-10-31T02:07:04.147Z,65.43
2022-10-31T02:08:07.089Z,65.58
2022-10-31T02:09:08.625Z,65.62
2022-10-31T02:10:10.133Z,65.59
2022-10-31T02:11:13.030Z,65.71
2022-10-31T02:12:14.565Z,65.63
2022-10-31T02:13:16.038Z,65.49
2022-10-31T02:14:23.679Z,65.54
2022-10-31T02:15:26.860Z,65.58
2022-10-31T02:16:28.361Z,65.46
2022-10-31T02:17:30.262Z,65.49
2022-10-31T02:18:32.629Z,65.46
2022-10-31T02:19:36.553Z,65.47
2022-10-31T02:20:47.817Z,65.61
2022-10-31T02:21:52.453Z,65.43
2022-10-31T02:23:12.119Z,65.45
2022-10-31T02:24:32.590Z,65.46
2022-10-31T02:25:53.255Z,65.43
2022-10-31T02:27:01.981Z,65.70
2022-10-31T02:28:13.902Z,65.57
2022-10-31T02:29:23.775Z,65.63
2022-10-31T02:30:25.778Z,65.50
2022-10-31T02:31:27.490Z,65.54
2022-10-31T02:32:44.366Z,65.53
2022-10-31T02:33:56.987Z,65.58
2022-10-31T02:35:10.862Z,65.48
2022-10-31T02:36:14.960Z,65.57
2022-10-31T02:37:22.076Z,65.48
2022-10-31T02:38:42.243Z,65.69
2022-10-31T02:39:57.720Z,65.53
2022-10-31T02:41:26.860Z,65.71
2022-10-31T02:42:35.113Z,65.84
2022-10-31T02:43:55.149Z,65.84
2022-10-31T02:45:03.526Z,65.83
2022-10-31T02:46:08.635Z,65.89
2022-10-31T02:47:12.683Z,65.94
2022-10-31T02:48:16.122Z,65.98
2022-10-31T02:49:24.080Z,65.76
2022-10-31T02:50:44.709Z,65.69
2022-10-31T02:51:46.276Z,65.64
2022-10-31T02:52:50.743Z,65.55
2022-10-31T02:53:52.281Z,65.71
2022-10-31T02:54:53.943Z,65.67
2022-10-31T02:55:57.697Z,65.57
2022-10-31T02:57:00.923Z,65.64
2022-10-31T02:58:03.980Z,65.52
2022-10-31T02:59:05.858Z,65.55
2022-10-31T03:00:08.254Z,65.64
2022-10-31T03:01:24.935Z,65.58
2022-10-31T03:02:38.631Z,65.60
2022-10-31T03:03:48.324Z,65.62
2022-10-31T03:04:50.984Z,65.83
2022-10-31T03:06:01.608Z,65.72
2022-10-31T03:07:32.485Z,65.70
2022-10-31T03:08:40.481Z,65.83
2022-10-31T03:10:03.920Z,65.74
2022-10-31T03:11:06.794Z,65.73
2022-10-31T03:12:10.235Z,65.73
2022-10-31T03:13:16.464Z,65.67
2022-10-31T03:14:22.605Z,65.61
2022-10-31T03:15:33.348Z,65.73
2022-10-31T03:16:40.526Z,65.57
2022-10-31T03:18:08.801Z,65.66
2022-10-31T03:19:11.526Z,65.74
2022-10-31T03:20:12.974Z,65.82
2022-10-31T03:21:15.135Z,65.86
2022-10-31T03:22:17.750Z,65.62
2022-10-31T03:23:19.499Z,65.76
2022-10-31T03:24:27.411Z,65.67
2022-10-31T03:25:29.122Z,65.69
2022-10-31T03:26:32.102Z,65.83
2022-10-31T03:27:33.820Z,65.83
2022-10-31T03:28:36.780Z,65.83
2022-10-31T03:29:39.598Z,65.75
2022-10-31T03:30:42.518Z,65.81
2022-10-31T03:31:45.847Z,65.68
2022-10-31T03:32:49.945Z,65.72
2022-10-31T03:33:51.479Z,65.76
2022-10-31T03:34:53.041Z,65.92
2022-10-31T03:35:55.406Z,65.81
2022-10-31T03:36:57.443Z,65.86
2022-10-31T03:37:58.910Z,65.92
2022-10-31T03:39:01.298Z,65.90
2022-10-31T03:40:03.007Z,65.93
2022-10-31T03:41:06.644Z,65.99
2022-10-31T03:42:26.142Z,66.08
2022-10-31T03:43:28.894Z,66.29
2022-10-31T03:44:30.952Z,66.43
2022-10-31T03:45:37.007Z,66.50
2022-10-31T03:46:39.202Z,66.39
2022-10-31T03:47:40.808Z,66.42
2022-10-31T03:48:42.389Z,66.35
2022-10-31T03:49:43.972Z,66.44
2022-10-31T03:50:45.524Z,66.35
2022-10-31T03:52:10.340Z,66.57
2022-10-31T03:53:16.126Z,66.76
2022-10-31T03:54:28.418Z,66.69
2022-10-31T03:55:35.456Z,66.83
2022-10-31T03:56:47.889Z,66.81
2022-10-31T03:57:53.307Z,66.97
2022-10-31T03:58:58.007Z,66.96
2022-10-31T04:00:01.025Z,67.06
2022-10-31T04:01:02.918Z,67.00
2022-10-31T04:02:06.571Z,66.88
2022-10-31T04:03:11.893Z,66.99
2022-10-31T04:04:16.151Z,66.98
2022-10-31T04:05:17.670Z,66.88
2022-10-31T04:06:19.260Z,66.99
2022-10-31T04:07:20.748Z,66.96
2022-10-31T04:08:25.776Z,66.84
2022-10-31T04:09:28.865Z,66.86
2022-10-31T04:10:33.092Z,66.96
2022-10-31T04:11:36.166Z,66.81
2022-10-31T04:12:57.913Z,67.04
2022-10-31T04:14:05.813Z,67.08
2022-10-31T04:15:11.195Z,67.13
2022-10-31T04:16:17.111Z,67.10
2022-10-31T04:17:19.982Z,67.14
2022-10-31T04:18:22.434Z,67.17
2022-10-31T04:19:23.937Z,66.99
2022-10-31T04:20:36.456Z,67.11
2022-10-31T04:21:38.210Z,67.14
2022-10-31T04:22:39.797Z,67.12
2022-10-31T04:23:41.305Z,67.13
2022-10-31T04:24:50.101Z,67.06
2022-10-31T04:25:52.909Z,67.21
2022-10-31T04:26:54.392Z,67.22
2022-10-31T04:27:58.200Z,67.20
2022-10-31T04:28:59.933Z,67.15
2022-10-31T04:30:02.861Z,67.20
2022-10-31T04:31:08.042Z,67.11
2022-10-31T04:32:12.430Z,67.24
2022-10-31T04:33:15.004Z,67.32
2022-10-31T04:34:18.475Z,67.27
2022-10-31T04:35:20.292Z,67.31
2022-10-31T04:36:22.064Z,67.20
2022-10-31T04:37:23.753Z,67.28
2022-10-31T04:38:25.335Z,67.30
2022-10-31T04:39:27.722Z,67.32
2022-10-31T04:40:49.205Z,67.27
2022-10-31T04:41:56.357Z,67.35
2022-10-31T04:42:59.993Z,67.37
2022-10-31T04:44:03.081Z,67.41
2022-10-31T04:45:05.921Z,67.46
2022-10-31T04:46:08.648Z,67.55
2022-10-31T04:47:10.337Z,67.34
2022-10-31T04:48:12.021Z,67.21
2022-10-31T04:49:15.378Z,67.29
2022-10-31T04:50:17.205Z,67.19
2022-10-31T04:51:20.106Z,67.21
2022-10-31T04:52:22.671Z,67.29
2022-10-31T04:53:24.209Z,67.23
2022-10-31T04:54:44.073Z,67.15
2022-10-31T04:56:08.324Z,67.14
2022-10-31T04:57:15.208Z,67.21
2022-10-31T04:59:27.425Z,67.13
2022-10-31T05:00:29.292Z,67.24
2022-10-31T05:01:30.947Z,67.19
2022-10-31T05:02:34.394Z,67.30
2022-10-31T05:03:35.905Z,67.08
2022-10-31T05:04:37.654Z,67.17
2022-10-31T05:05:39.395Z,67.10
2022-10-31T05:06:40.888Z,67.00
2022-10-31T05:07:43.739Z,67.06
2022-10-31T05:08:45.209Z,67.09
2022-10-31T05:09:47.147Z,67.01
2022-10-31T05:10:49.194Z,66.99
2022-10-31T05:11:50.717Z,66.96
2022-10-31T05:13:16.514Z,66.95
2022-10-31T05:14:36.780Z,66.98
2022-10-31T05:15:56.707Z,67.03
2022-10-31T05:17:16.794Z,67.06
2022-10-31T05:18:36.952Z,67.16
2022-10-31T05:19:57.034Z,67.26
2022-10-31T05:21:27.763Z,67.20
2022-10-31T05:22:33.876Z,67.26
2022-10-31T05:23:35.410Z,67.36
2022-10-31T05:24:37.405Z,67.31
2022-10-31T05:25:40.407Z,67.40
2022-10-31T05:26:42.277Z,67.52
2022-10-31T05:27:45.332Z,67.39
2022-10-31T05:28:46.849Z,67.47
2022-10-31T05:29:48.392Z,67.51
2022-10-31T05:30:50.123Z,67.44
2022-10-31T05:31:51.637Z,67.44
2022-10-31T05:33:15.935Z,67.29
2022-10-31T05:34:36.069Z,67.71
2022-10-31T05:36:10.030Z,67.75
2022-10-31T05:37:27.346Z,67.71
2022-10-31T05:38:28.847Z,67.70
2022-10-31T05:39:33.960Z,67.77
2022-10-31T05:40:39.839Z,67.73
2022-10-31T05:41:41.796Z,67.92
2022-10-31T05:42:51.419Z,67.75
2022-10-31T05:43:52.989Z,67.71
2022-10-31T05:44:58.685Z,67.65
2022-10-31T05:46:17.258Z,67.51
2022-10-31T05:47:54.328Z,67.65
2022-10-31T05:49:14.485Z,67.54
2022-10-31T05:50:34.296Z,67.55
2022-10-31T05:51:45.922Z,67.58
2022-10-31T05:52:47.439Z,67.62
2022-10-31T05:53:55.954Z,67.59
2022-10-31T05:54:57.903Z,67.53
2022-10-31T05:55:59.413Z,67.41
2022-10-31T05:57:00.874Z,67.35
2022-10-31T05:58:02.710Z,67.41
2022-10-31T05:59:04.642Z,67.35
2022-10-31T06:00:06.582Z,67.46
2022-10-31T06:01:22.593Z,67.26
2022-10-31T06:02:24.323Z,67.47
2022-10-31T06:03:44.226Z,67.50
2022-10-31T06:04:50.021Z,67.44
2022-10-31T06:05:55.001Z,67.44
2022-10-31T06:06:59.449Z,67.41
2022-10-31T06:08:01.398Z,67.38
2022-10-31T06:09:03.719Z,67.38
2022-10-31T06:10:08.652Z,67.38
2022-10-31T06:11:10.206Z,67.42
2022-10-31T06:12:30.838Z,67.37
2022-10-31T06:13:50.428Z,67.35
2022-10-31T06:14:57.299Z,67.29
2022-10-31T06:15:58.852Z,67.43
2022-10-31T06:17:07.240Z,67.51
2022-10-31T06:18:37.777Z,67.54
2022-10-31T06:19:39.324Z,67.47
2022-10-31T06:20:40.883Z,67.45
2022-10-31T06:21:42.354Z,67.47
2022-10-31T06:22:44.228Z,67.43
2022-10-31T06:23:45.753Z,67.38
2022-10-31T06:25:07.715Z,67.69
2022-10-31T06:26:12.447Z,67.62
2022-10-31T06:27:15.088Z,67.47
2022-10-31T06:28:17.057Z,67.64
2022-10-31T06:29:31.097Z,67.48
2022-10-31T06:30:37.890Z,67.48
2022-10-31T06:31:39.478Z,67.54
2022-10-31T06:32:41.023Z,67.56
2022-10-31T06:33:44.166Z,67.63
2022-10-31T06:34:45.798Z,67.63
2022-10-31T06:35:47.855Z,67.66
2022-10-31T06:36:51.258Z,67.73
2022-10-31T06:37:56.349Z,67.68
2022-10-31T06:39:14.490Z,67.63
2022-10-31T06:40:16.222Z,67.64
2022-10-31T06:41:37.687Z,67.69
2022-10-31T06:42:39.227Z,67.54
2022-10-31T06:43:41.031Z,67.64
2022-10-31T06:45:02.476Z,67.45
2022-10-31T06:46:22.463Z,67.68
2022-10-31T06:47:56.672Z,67.40
2022-10-31T06:49:02.429Z,67.39
2022-10-31T06:50:16.158Z,67.37
2022-10-31T06:51:17.706Z,67.33
2022-10-31T06:52:19.245Z,67.27
2022-10-31T06:53:20.977Z,67.35
2022-10-31T06:54:23.119Z,67.41
2022-10-31T06:55:25.420Z,67.38
2022-10-31T06:56:27.004Z,67.33
2022-10-31T06:57:31.013Z,67.36
2022-10-31T06:58:32.517Z,67.42
2022-10-31T06:59:36.789Z,67.58
2022-10-31T07:01:07.834Z,67.61
2022-10-31T07:02:12.553Z,67.55
2022-10-31T07:03:16.733Z,67.32
2022-10-31T07:04:19.196Z,67.49
2022-10-31T07:05:23.069Z,67.40
2022-10-31T07:06:24.617Z,67.42
2022-10-31T07:07:26.082Z,67.22
2022-10-31T07:08:27.775Z,67.19
2022-10-31T07:09:29.309Z,67.54
2022-10-31T07:10:37.443Z,67.60
2022-10-31T07:11:42.958Z,67.56
2022-10-31T07:12:44.630Z,67.58
2022-10-31T07:13:46.188Z,67.48
2022-10-31T07:14:47.790Z,67.52
2022-10-31T07:15:49.253Z,67.58
2022-10-31T07:16:51.753Z,67.70
2022-10-31T07:18:04.963Z,67.22
2022-10-31T07:19:06.514Z,67.20
2022-10-31T07:20:08.973Z,67.27
2022-10-31T07:21:10.491Z,67.04
2022-10-31T07:22:12.011Z,67.03
2022-10-31T07:23:15.226Z,67.00
2022-10-31T07:24:21.201Z,67.35
2022-10-31T07:26:01.138Z,67.14
2022-10-31T07:27:13.123Z,66.43
2022-10-31T07:28:14.691Z,66.28
2022-10-31T07:29:20.392Z,66.17
2022-10-31T07:30:21.873Z,65.99
2022-10-31T07:31:26.308Z,65.81
2022-10-31T07:32:38.173Z,65.91
2022-10-31T07:33:40.598Z,65.87
2022-10-31T07:35:15.234Z,65.66
2022-10-31T07:36:26.262Z,65.04
2022-10-31T07:37:30.659Z,64.99
2022-10-31T07:38:33.677Z,64.44
2022-10-31T07:39:38.806Z,64.47
2022-10-31T07:40:42.452Z,64.45
2022-10-31T07:41:43.957Z,64.09
2022-10-31T07:42:46.680Z,63.67
2022-10-31T07:44:08.213Z,63.89
2022-10-31T07:45:32.802Z,63.53
2022-10-31T07:47:03.466Z,63.43
2022-10-31T07:48:23.578Z,63.70
2022-10-31T07:49:59.926Z,63.56
2022-10-31T07:51:01.374Z,63.59
2022-10-31T07:52:31.798Z,62.87
2022-10-31T07:53:51.856Z,62.78
2022-10-31T07:54:59.183Z,62.38
2022-10-31T07:56:00.669Z,62.43
2022-10-31T07:57:05.144Z,62.54
2022-10-31T07:58:07.340Z,63.04
2022-10-31T07:59:09.703Z,62.77
2022-10-31T08:00:11.815Z,62.98
2022-10-31T08:01:19.029Z,62.77
2022-10-31T08:02:34.271Z,62.77
2022-10-31T08:03:54.396Z,62.59
2022-10-31T08:05:14.516Z,62.24
2022-10-31T08:06:35.321Z,62.08
2022-10-31T08:08:51.874Z,61.80
2022-10-31T08:09:54.122Z,61.70
2022-10-31T08:10:59.529Z,61.73
2022-10-31T08:12:02.353Z,61.69
2022-10-31T08:13:06.276Z,61.87
2022-10-31T08:14:08.462Z,61.72
2022-10-31T08:15:10.161Z,61.75
2022-10-31T08:16:12.021Z,61.77
2022-10-31T08:17:22.670Z,61.75
2022-10-31T08:18:32.292Z,61.88
2022-10-31T08:19:34.421Z,62.05
2022-10-31T08:20:36.207Z,62.27
2022-10-31T08:21:37.743Z,62.27
2022-10-31T08:22:42.729Z,62.44
2022-10-31T08:23:45.599Z,62.53
2022-10-31T08:24:47.500Z,62.65
2022-10-31T08:25:49.217Z,62.66
2022-10-31T08:26:50.817Z,62.74
2022-10-31T08:27:52.805Z,62.85
2022-10-31T08:28:56.049Z,63.20
2022-10-31T08:30:00.560Z,63.32
2022-10-31T08:31:02.089Z,63.36
2022-10-31T08:32:15.775Z,63.35
2022-10-31T08:33:35.734Z,63.26
2022-10-31T08:34:43.192Z,63.32
2022-10-31T08:36:02.963Z,63.21
2022-10-31T08:37:23.646Z,63.14
2022-10-31T08:38:28.740Z,62.91
2022-10-31T08:39:30.440Z,62.85
2022-10-31T08:40:34.445Z,62.98
2022-10-31T08:41:37.298Z,62.76
2022-10-31T08:42:44.134Z,62.85
2022-10-31T08:43:47.046Z,62.74
2022-10-31T08:44:49.785Z,62.69
2022-10-31T08:45:56.018Z,62.89
2022-10-31T08:47:03.132Z,63.05
2022-10-31T08:48:07.684Z,62.88
2022-10-31T08:49:11.730Z,62.96
2022-10-31T08:50:15.493Z,62.93
2022-10-31T08:51:21.364Z,63.01
2022-10-31T08:52:51.252Z,63.06
2022-10-31T08:53:48.817Z,63.23
2022-10-31T08:54:59.494Z,63.37
2022-10-31T08:56:19.207Z,63.17
2022-10-31T08:57:21.143Z,63.16
2022-10-31T08:58:23.313Z,63.40
2022-10-31T08:59:28.041Z,63.44
2022-10-31T09:00:50.598Z,63.71
2022-10-31T09:01:55.233Z,63.96
2022-10-31T09:02:57.761Z,63.91
2022-10-31T09:03:59.316Z,63.86
2022-10-31T09:05:01.677Z,63.85
2022-10-31T09:06:04.103Z,63.69
2022-10-31T09:07:21.647Z,63.74
2022-10-31T09:08:23.502Z,63.67
2022-10-31T09:09:26.054Z,63.72
2022-10-31T09:10:27.767Z,63.59
2022-10-31T09:11:32.193Z,63.64
2022-10-31T09:12:45.842Z,63.69
2022-10-31T09:14:02.796Z,63.58
2022-10-31T09:15:27.554Z,63.54
2022-10-31T09:16:40.285Z,63.34
2022-10-31T09:17:48.844Z,63.49
2022-10-31T09:18:57.047Z,63.44
2022-10-31T09:19:58.569Z,63.38
2022-10-31T09:21:06.148Z,63.29
2022-10-31T09:22:07.581Z,63.27
2022-10-31T09:23:12.640Z,63.17
2022-10-31T09:24:14.307Z,63.11
2022-10-31T09:25:17.464Z,63.20
2022-10-31T09:26:26.361Z,63.09
2022-10-31T09:27:32.281Z,62.99
2022-10-31T09:28:34.154Z,63.02
2022-10-31T09:29:41.144Z,62.95
2022-10-31T09:30:46.733Z,62.88
2022-10-31T09:31:53.477Z,62.89
2022-10-31T09:33:06.140Z,62.64
2022-10-31T09:34:08.664Z,62.73
2022-10-31T09:36:19.477Z,62.48
2022-10-31T09:37:20.951Z,62.49
2022-10-31T09:38:24.260Z,62.63
2022-10-31T09:39:25.746Z,62.54
2022-10-31T09:40:45.232Z,62.67
2022-10-31T09:42:05.245Z,62.49
2022-10-31T09:43:23.786Z,62.79
2022-10-31T09:44:28.070Z,62.89
2022-10-31T09:45:34.965Z,62.85
2022-10-31T09:46:47.748Z,62.94
2022-10-31T09:47:49.278Z,63.06
2022-10-31T09:49:24.229Z,63.03
2022-10-31T09:50:27.235Z,63.15
2022-10-31T09:51:30.769Z,63.21
2022-10-31T09:52:52.078Z,63.34
2022-10-31T09:53:55.339Z,63.58
2022-10-31T09:54:59.393Z,63.59
2022-10-31T09:56:01.013Z,63.88
2022-10-31T09:57:02.639Z,63.86
2022-10-31T09:58:04.309Z,63.70
2022-10-31T09:59:06.309Z,63.80
2022-10-31T10:00:08.664Z,63.98
2022-10-31T10:01:27.719Z,63.96
2022-10-31T10:02:31.180Z,64.11
2022-10-31T10:03:35.525Z,64.14
2022-10-31T10:04:49.540Z,63.99
2022-10-31T10:06:13.506Z,63.85
2022-10-31T10:07:34.950Z,63.84
2022-10-31T10:08:55.753Z,63.88
2022-10-31T10:10:26.745Z,64.08
2022-10-31T10:12:00.201Z,64.07
2022-10-31T10:13:20.187Z,64.09
2022-10-31T10:14:40.559Z,64.05
2022-10-31T10:15:41.963Z,63.70
2022-10-31T10:16:46.502Z,63.47
2022-10-31T10:17:55.177Z,63.24
2022-10-31T10:18:59.609Z,63.31
2022-10-31T10:20:11.183Z,65.31
2022-10-31T10:21:21.654Z,63.83
2022-10-31T10:22:23.278Z,62.96
2022-10-31T10:23:32.216Z,62.05
2022-10-31T10:24:52.590Z,61.20
2022-10-31T10:25:56.252Z,60.30
2022-10-31T10:26:57.777Z,60.08
2022-10-31T10:28:04.884Z,59.67
2022-10-31T10:29:21.417Z,59.12
2022-10-31T10:30:23.872Z,59.05
2022-10-31T10:31:26.252Z,59.08
2022-10-31T10:32:28.858Z,59.39
2022-10-31T10:33:37.768Z,58.96
2022-10-31T10:34:42.969Z,59.26
2022-10-31T10:35:51.731Z,58.77
2022-10-31T10:36:58.065Z,58.67
2022-10-31T10:38:02.814Z,58.91
2022-10-31T10:39:05.717Z,58.62
2022-10-31T10:40:15.339Z,58.56
2022-10-31T10:41:20.971Z,58.72
2022-10-31T10:42:41.091Z,59.04
2022-10-31T10:43:42.633Z,58.81
2022-10-31T10:45:03.804Z,58.84
2022-10-31T10:46:42.809Z,58.83
2022-10-31T10:48:04.600Z,58.68
2022-10-31T10:49:18.812Z,58.52
2022-10-31T10:50:21.124Z,58.36
2022-10-31T10:53:09.030Z,57.77
2022-10-31T10:54:15.013Z,57.83
2022-10-31T10:55:28.753Z,57.76
2022-10-31T10:56:36.106Z,57.44
2022-10-31T10:57:47.899Z,57.80
2022-10-31T10:58:49.393Z,57.86
2022-10-31T10:59:51.174Z,58.00
2022-10-31T11:00:52.719Z,58.08
2022-10-31T11:01:54.461Z,58.40
2022-10-31T11:02:55.964Z,58.23
2022-10-31T11:03:57.418Z,57.55
2022-10-31T11:04:59.228Z,57.90
2022-10-31T11:06:02.428Z,58.01
2022-10-31T11:07:07.646Z,57.99
2022-10-31T11:08:09.120Z,58.01
2022-10-31T11:09:11.633Z,57.86
2022-10-31T11:10:15.054Z,58.28
2022-10-31T11:11:31.431Z,58.35
2022-10-31T11:12:33.293Z,57.97
2022-10-31T11:13:34.986Z,58.19
2022-10-31T11:15:05.470Z,58.45
2022-10-31T11:16:08.181Z,58.50
2022-10-31T11:17:29.052Z,58.67
2022-10-31T11:18:50.742Z,58.51
2022-10-31T11:20:02.373Z,58.49
2022-10-31T11:21:05.194Z,58.68
2022-10-31T11:22:07.736Z,58.78
2022-10-31T11:23:17.466Z,58.54
2022-10-31T11:24:27.188Z,58.30
2022-10-31T11:25:28.721Z,58.40
2022-10-31T11:26:30.160Z,58.63
2022-10-31T11:27:31.614Z,58.22
2022-10-31T11:28:35.271Z,58.42
2022-10-31T11:29:37.725Z,58.41
2022-10-31T11:30:52.489Z,58.19
2022-10-31T11:31:54.932Z,57.90
2022-10-31T11:32:56.378Z,57.90
2022-10-31T11:34:08.067Z,57.92
2022-10-31T11:35:10.925Z,58.00
2022-10-31T11:36:16.315Z,58.49
2022-10-31T11:37:19.179Z,58.51
2022-10-31T11:38:22.058Z,58.75
2022-10-31T11:39:23.954Z,58.35
2022-10-31T11:40:25.967Z,58.24
2022-10-31T11:41:27.528Z,58.00
2022-10-31T11:42:30.251Z,57.93
2022-10-31T11:43:31.757Z,58.36
2022-10-31T11:44:33.663Z,58.64
2022-10-31T11:45:35.382Z,58.83
2022-10-31T11:46:40.687Z,58.96
2022-10-31T11:47:42.891Z,58.99
2022-10-31T11:48:47.590Z,58.88
2022-10-31T11:49:51.622Z,58.70
2022-10-31T11:50:56.765Z,58.60
2022-10-31T11:51:59.129Z,58.79
2022-10-31T11:53:00.635Z,58.69
2022-10-31T11:54:03.565Z,58.69
2022-10-31T11:55:13.885Z,58.74
2022-10-31T11:56:15.798Z,58.29
2022-10-31T11:57:46.412Z,58.51
2022-10-31T11:59:02.284Z,58.32
2022-10-31T12:00:04.568Z,58.51
2022-10-31T12:01:26.897Z,57.96
2022-10-31T12:02:28.557Z,58.00
2022-10-31T12:03:30.031Z,58.18
2022-10-31T12:04:39.706Z,58.77
2022-10-31T12:05:41.236Z,58.51
2022-10-31T12:06:43.362Z,58.53
2022-10-31T12:07:44.983Z,58.66
2022-10-31T12:08:47.356Z,58.52
2022-10-31T12:09:48.845Z,58.53
2022-10-31T12:10:53.094Z,58.37
2022-10-31T12:12:06.496Z,58.11
2022-10-31T12:13:07.948Z,58.08
2022-10-31T12:14:13.867Z,58.49
2022-10-31T12:15:18.130Z,58.40
2022-10-31T12:16:21.408Z,58.39
2022-10-31T12:17:26.438Z,58.64
2022-10-31T12:18:36.923Z,58.47
2022-10-31T12:20:01.680Z,58.48
2022-10-31T12:21:08.959Z,58.15
2022-10-31T12:22:19.420Z,58.00
2022-10-31T12:23:25.133Z,57.83
2022-10-31T12:24:33.669Z,57.61
2022-10-31T12:25:35.169Z,57.73
2022-10-31T12:26:48.806Z,57.75
2022-10-31T12:27:54.217Z,57.91
2022-10-31T12:28:58.512Z,57.73
2022-10-31T12:30:09.424Z,57.50
2022-10-31T12:31:10.865Z,57.35
2022-10-31T12:32:18.065Z,57.45
2022-10-31T12:33:29.760Z,57.73
2022-10-31T12:34:38.426Z,57.92
2022-10-31T12:36:46.290Z,58.32
2022-10-31T12:37:47.783Z,58.13
2022-10-31T12:38:55.093Z,58.31
2022-10-31T12:40:23.049Z,58.08
2022-10-31T12:41:27.167Z,58.27
2022-10-31T12:42:28.641Z,58.27
2022-10-31T12:43:35.094Z,58.38
2022-10-31T12:44:41.310Z,58.34
2022-10-31T12:46:09.490Z,58.31
2022-10-31T12:47:13.720Z,58.42
2022-10-31T12:48:17.178Z,58.62
2022-10-31T12:49:39.032Z,58.64
2022-10-31T12:50:59.100Z,58.70
2022-10-31T12:52:03.353Z,59.10
2022-10-31T12:53:16.835Z,58.90
2022-10-31T12:54:23.125Z,59.01
2022-10-31T12:55:42.793Z,59.04
2022-10-31T12:57:03.277Z,59.36
2022-10-31T12:58:30.888Z,59.56
2022-10-31T12:59:36.618Z,59.65
2022-10-31T13:00:38.962Z,59.69
2022-10-31T13:01:42.183Z,59.62
2022-10-31T13:02:45.906Z,59.78
2022-10-31T13:04:04.155Z,59.76
2022-10-31T13:05:14.552Z,59.83
2022-10-31T13:06:18.856Z,59.98
2022-10-31T13:07:22.172Z,59.86
2022-10-31T13:08:25.743Z,59.98
2022-10-31T13:09:34.929Z,60.17
2022-10-31T13:10:41.284Z,60.00
2022-10-31T13:11:46.457Z,59.95
2022-10-31T13:12:48.907Z,59.83
2022-10-31T13:13:53.947Z,60.16
2022-10-31T13:14:56.533Z,60.27
2022-10-31T13:15:58.800Z,60.00
2022-10-31T13:17:00.286Z,60.09
2022-10-31T13:18:06.026Z,60.29
2022-10-31T13:19:26.119Z,60.23
2022-10-31T13:20:40.247Z,60.26
2022-10-31T13:22:02.031Z,60.62
2022-10-31T13:23:18.170Z,60.34
2022-10-31T13:24:41.513Z,60.16
2022-10-31T13:25:43.817Z,60.36
2022-10-31T13:26:48.380Z,60.46
2022-10-31T13:27:50.708Z,60.67
2022-10-31T13:29:14.228Z,60.61
2022-10-31T13:30:19.729Z,60.72
2022-10-31T13:31:21.468Z,60.44
2022-10-31T13:32:22.962Z,60.60
2022-10-31T13:33:31.667Z,60.67
2022-10-31T13:34:35.016Z,61.11
2022-10-31T13:35:42.457Z,60.95
2022-10-31T13:36:46.551Z,61.15
2022-10-31T13:37:54.723Z,61.25
2022-10-31T13:38:56.569Z,61.59
2022-10-31T13:40:01.007Z,61.59
2022-10-31T13:41:07.453Z,61.52
2022-10-31T13:42:32.546Z,61.62
2022-10-31T13:43:36.944Z,61.45
2022-10-31T13:44:39.125Z,61.47
2022-10-31T13:45:53.643Z,62.06
2022-10-31T13:46:55.714Z,62.25
2022-10-31T13:48:15.336Z,62.63
2022-10-31T13:49:31.809Z,62.23
2022-10-31T13:50:33.997Z,61.81
2022-10-31T13:51:36.149Z,61.84
2022-10-31T13:52:38.266Z,61.84
2022-10-31T13:53:43.124Z,61.72
2022-10-31T13:54:45.587Z,61.69
2022-10-31T13:55:48.064Z,61.48
2022-10-31T13:56:50.003Z,61.73
2022-10-31T13:57:51.485Z,61.68
2022-10-31T13:59:02.960Z,61.89
2022-10-31T14:00:07.227Z,62.18
2022-10-31T14:01:13.993Z,62.36
2022-10-31T14:02:16.553Z,61.82
2022-10-31T14:03:35.926Z,61.91
2022-10-31T14:04:48.330Z,62.01
2022-10-31T14:05:53.171Z,61.47
2022-10-31T14:06:54.628Z,61.26
2022-10-31T14:07:56.256Z,61.49
2022-10-31T14:08:57.760Z,61.45
2022-10-31T14:10:20.608Z,60.09
2022-10-31T14:11:32.929Z,60.28
2022-10-31T14:12:39.253Z,60.35
2022-10-31T14:13:44.233Z,59.46
2022-10-31T14:14:47.325Z,59.52
2022-10-31T14:15:57.904Z,59.91
2022-10-31T14:16:59.512Z,60.36
2022-10-31T14:18:24.093Z,60.56
2022-10-31T14:19:25.792Z,60.48
2022-10-31T14:20:36.425Z,59.93
2022-10-31T14:21:38.813Z,59.30
2022-10-31T14:22:42.802Z,59.34
2022-10-31T14:23:48.343Z,58.34
2022-10-31T14:24:52.247Z,58.20